createdAt,value
2017-12-12T00:02:03.981Z,97522
2017-12-12T00:04:33.883Z,97519
2017-12-12T00:07:03.759Z,97517
2017-12-12T00:09:33.643Z,97515
2017-12-12T00:12:03.543Z,97501
2017-12-12T00:14:33.403Z,97501
2017-12-12T00:17:03.632Z,97501
2017-12-12T00:19:33.581Z,97511
2017-12-12T00:22:03.501Z,97515
2017-12-12T00:24:33.398Z,97520
2017-12-12T00:27:03.371Z,97524
2017-12-12T00:29:33.274Z,97530
2017-12-12T00:32:03.188Z,97535
2017-12-12T00:34:33.079Z,97527
2017-12-12T00:37:03.063Z,97534
2017-12-12T00:39:32.973Z,97525
2017-12-12T00:42:02.877Z,97533
2017-12-12T00:44:32.754Z,97531
2017-12-12T00:47:02.657Z,97541
2017-12-12T00:49:32.580Z,97543
2017-12-12T00:52:02.490Z,97546
2017-12-12T00:54:32.404Z,97532
2017-12-12T00:57:02.314Z,97523
2017-12-12T00:59:32.217Z,97534
2017-12-12T01:02:02.090Z,97530
2017-12-12T01:04:31.989Z,97527
2017-12-12T01:07:01.870Z,97533
2017-12-12T01:09:31.767Z,97539
2017-12-12T01:12:01.663Z,97541
2017-12-12T01:14:31.548Z,97548
2017-12-12T01:17:01.456Z,97554
2017-12-12T01:19:32.479Z,97557
2017-12-12T01:22:02.414Z,97554
2017-12-12T01:24:32.296Z,97564
2017-12-12T01:27:02.217Z,97576
2017-12-12T01:29:32.089Z,97565
2017-12-12T01:32:02.310Z,97569
2017-12-12T01:34:32.187Z,97569
2017-12-12T01:37:02.083Z,97573
2017-12-12T01:39:31.963Z,97569
2017-12-12T01:42:01.860Z,97559
2017-12-12T01:44:31.736Z,97574
2017-12-12T01:47:01.661Z,97576
2017-12-12T01:49:31.562Z,97583
2017-12-12T01:52:01.439Z,97586
2017-12-12T01:54:31.478Z,97591
2017-12-12T01:57:01.366Z,97593
2017-12-12T01:59:31.282Z,97593
2017-12-12T02:02:01.191Z,97591
2017-12-12T02:04:31.128Z,97598
2017-12-12T02:07:00.999Z,97594
2017-12-12T02:09:30.940Z,97599
2017-12-12T02:12:00.828Z,97612
2017-12-12T02:14:30.720Z,97609
2017-12-12T02:17:00.593Z,97621
2017-12-12T02:19:30.610Z,97633
2017-12-12T02:22:00.515Z,97640
2017-12-12T02:24:30.382Z,97636
2017-12-12T02:27:00.277Z,97637
2017-12-12T02:29:30.146Z,97640
2017-12-12T02:32:00.050Z,97644
2017-12-12T02:34:29.896Z,97640
2017-12-12T02:36:59.777Z,97642
2017-12-12T02:39:29.741Z,97660
2017-12-12T02:41:59.583Z,97654
2017-12-12T02:44:29.554Z,97659
2017-12-12T02:46:59.430Z,97664
2017-12-12T02:49:29.320Z,97665
2017-12-12T02:51:59.259Z,97676
2017-12-12T02:54:29.162Z,97672
2017-12-12T02:56:59.033Z,97670
2017-12-12T02:59:28.930Z,97671
2017-12-12T03:01:58.798Z,97680
2017-12-12T03:04:28.691Z,97674
2017-12-12T03:06:58.601Z,97689
2017-12-12T03:09:28.459Z,97696
2017-12-12T03:11:58.310Z,97696
2017-12-12T03:14:28.162Z,97707
2017-12-12T03:16:58.827Z,97705
2017-12-12T03:19:28.709Z,97710
2017-12-12T03:21:58.659Z,97716
2017-12-12T03:24:28.593Z,97707
2017-12-12T03:26:58.493Z,97710
2017-12-12T03:29:28.482Z,97723
2017-12-12T03:31:58.352Z,97726
2017-12-12T03:34:28.271Z,97729
2017-12-12T03:36:58.324Z,97747
2017-12-12T03:39:28.181Z,97751
2017-12-12T03:41:58.090Z,97748
2017-12-12T03:44:27.946Z,97758
2017-12-12T03:46:57.808Z,97765
2017-12-12T03:49:27.731Z,97776
2017-12-12T03:51:57.589Z,97782
2017-12-12T03:54:27.477Z,97789
2017-12-12T03:56:57.471Z,97797
2017-12-12T03:59:27.471Z,97813
2017-12-12T04:01:57.359Z,97819
2017-12-12T04:04:27.261Z,97820
2017-12-12T04:06:57.118Z,97835
2017-12-12T04:12:03.403Z,97845
2017-12-12T04:14:33.308Z,97836
2017-12-12T04:17:03.919Z,97844
2017-12-12T04:19:33.838Z,97852
2017-12-12T04:22:03.731Z,97857
2017-12-12T04:24:33.618Z,97861
2017-12-12T04:27:03.593Z,97876
2017-12-12T04:29:33.484Z,97880
2017-12-12T04:32:03.369Z,97885
2017-12-12T04:34:33.268Z,97886
2017-12-12T04:37:03.146Z,97899
2017-12-12T04:39:33.041Z,97908
2017-12-12T04:42:02.918Z,97915
2017-12-12T04:44:32.817Z,97923
2017-12-12T04:47:02.755Z,97926
2017-12-12T04:49:32.634Z,97934
2017-12-12T04:52:02.509Z,97935
2017-12-12T04:57:08.493Z,97955
2017-12-12T04:59:38.374Z,97961
2017-12-12T05:02:08.354Z,97972
2017-12-12T05:04:38.245Z,97991
2017-12-12T05:07:08.103Z,97986
2017-12-12T05:09:38.006Z,97997
2017-12-12T05:12:07.915Z,98001
2017-12-12T05:14:37.778Z,98025
2017-12-12T05:17:07.659Z,98025
2017-12-12T05:19:37.588Z,98026
2017-12-12T05:22:07.649Z,98039
2017-12-12T05:24:37.538Z,98036
2017-12-12T05:27:07.460Z,98044
2017-12-12T05:29:37.361Z,98042
2017-12-12T05:32:07.230Z,98040
2017-12-12T05:34:37.260Z,98055
2017-12-12T05:37:07.145Z,98056
2017-12-12T05:39:37.182Z,98067
2017-12-12T05:42:07.060Z,98083
2017-12-12T05:44:36.956Z,98096
2017-12-12T05:47:06.968Z,98101
2017-12-12T05:49:36.927Z,98101
2017-12-12T05:52:06.801Z,98111
2017-12-12T05:54:36.686Z,98117
2017-12-12T05:57:06.964Z,98122
2017-12-12T05:59:36.868Z,98134
2017-12-12T06:02:06.803Z,98133
2017-12-12T06:04:36.713Z,98146
2017-12-12T06:07:06.570Z,98152
2017-12-12T06:09:36.441Z,98156
2017-12-12T06:12:06.324Z,98167
2017-12-12T06:14:36.212Z,98172
2017-12-12T06:17:06.095Z,98176
2017-12-12T06:19:35.969Z,98188
2017-12-12T06:22:05.873Z,98193
2017-12-12T06:24:35.751Z,98192
2017-12-12T06:27:05.661Z,98209
2017-12-12T06:29:35.737Z,98212
2017-12-12T06:32:05.631Z,98224
2017-12-12T06:34:35.502Z,98225
2017-12-12T06:37:05.404Z,98250
2017-12-12T06:39:35.272Z,98248
2017-12-12T06:42:05.178Z,98264
2017-12-12T06:44:35.058Z,98271
2017-12-12T06:47:04.961Z,98279
2017-12-12T06:49:34.837Z,98284
2017-12-12T06:52:04.730Z,98294
2017-12-12T06:54:34.637Z,98311
2017-12-12T06:57:04.512Z,98318
2017-12-12T06:59:34.402Z,98331
2017-12-12T07:02:04.290Z,98342
2017-12-12T07:04:34.626Z,98354
2017-12-12T07:07:04.498Z,98363
2017-12-12T07:09:34.390Z,98380
2017-12-12T07:12:04.303Z,98398
2017-12-12T07:14:34.189Z,98401
2017-12-12T07:17:04.055Z,98401
2017-12-12T07:19:33.983Z,98413
2017-12-12T07:22:06.369Z,98418
2017-12-12T07:24:36.304Z,98431
2017-12-12T07:27:06.205Z,98439
2017-12-12T07:29:36.117Z,98444
2017-12-12T07:32:06.124Z,98452
2017-12-12T07:34:36.034Z,98462
2017-12-12T07:37:06.231Z,98474
2017-12-12T07:39:36.246Z,98478
2017-12-12T07:42:07.318Z,98482
2017-12-12T07:44:37.241Z,98436
2017-12-12T07:47:07.114Z,98499
2017-12-12T07:49:37.074Z,98513
2017-12-12T07:52:06.943Z,98508
2017-12-12T07:54:36.841Z,98511
2017-12-12T07:57:06.781Z,98529
2017-12-12T07:59:36.721Z,98544
2017-12-12T08:02:06.702Z,98546
2017-12-12T08:04:36.599Z,98558
2017-12-12T08:07:06.521Z,98559
2017-12-12T08:09:36.522Z,98558
2017-12-12T08:12:06.431Z,98572
2017-12-12T08:14:36.407Z,98589
2017-12-12T08:17:06.307Z,98590
2017-12-12T08:19:36.304Z,98591
2017-12-12T08:22:06.295Z,98595
2017-12-12T08:24:36.178Z,98592
2017-12-12T08:27:06.101Z,98605
2017-12-12T08:29:36.012Z,98607
2017-12-12T08:32:05.932Z,98617
2017-12-12T08:34:35.809Z,98622
2017-12-12T08:37:05.701Z,98625
2017-12-12T08:39:35.606Z,98634
2017-12-12T08:42:05.528Z,98646
2017-12-12T08:44:35.457Z,98656
2017-12-12T08:47:05.332Z,98659
2017-12-12T08:49:35.264Z,98674
2017-12-12T08:52:05.178Z,98683
2017-12-12T08:54:35.084Z,98689
2017-12-12T08:57:04.949Z,98693
2017-12-12T08:59:35.730Z,98698
2017-12-12T09:02:05.672Z,98699
2017-12-12T09:04:35.560Z,98711
2017-12-12T09:07:05.486Z,98718
2017-12-12T09:09:35.388Z,98724
2017-12-12T09:12:06.017Z,98734
2017-12-12T09:27:30.922Z,98797
2017-12-12T09:30:00.841Z,98788
2017-12-12T09:32:30.754Z,98798
2017-12-12T09:35:00.764Z,98803
2017-12-12T09:37:30.751Z,98815
2017-12-12T09:40:00.637Z,98814
2017-12-12T09:42:30.558Z,98823
2017-12-12T09:45:00.461Z,98840
2017-12-12T09:47:30.380Z,98850
2017-12-12T09:50:00.262Z,98855
2017-12-12T09:52:30.168Z,98870
2017-12-12T09:55:00.054Z,98876
2017-12-12T09:57:30.009Z,98877
2017-12-12T09:59:59.946Z,98883
2017-12-12T10:02:29.826Z,98896
2017-12-12T10:04:59.753Z,98899
2017-12-12T10:07:29.623Z,98904
2017-12-12T10:09:59.624Z,98908
2017-12-12T10:12:29.500Z,98914
2017-12-12T10:14:59.401Z,98919
2017-12-12T10:17:29.381Z,98921
2017-12-12T10:19:59.396Z,98925
2017-12-12T10:22:29.325Z,98933
2017-12-12T10:24:59.237Z,98932
2017-12-12T10:27:29.154Z,98938
2017-12-12T10:29:59.177Z,98949
2017-12-12T10:32:29.261Z,98959
2017-12-12T10:34:59.185Z,98957
2017-12-12T10:37:29.053Z,98960
2017-12-12T10:39:59.166Z,98968
2017-12-12T10:42:29.044Z,98968
2017-12-12T10:44:58.936Z,98982
2017-12-12T10:47:28.823Z,98981
2017-12-12T10:49:58.910Z,98985
2017-12-12T10:52:28.816Z,98989
2017-12-12T10:54:58.730Z,98994
2017-12-12T10:57:28.740Z,99008
2017-12-12T10:59:58.561Z,99013
2017-12-12T11:02:28.494Z,99017
2017-12-12T11:04:58.384Z,99021
2017-12-12T11:07:28.386Z,99034
2017-12-12T11:09:58.318Z,99041
2017-12-12T11:12:28.276Z,99044
2017-12-12T11:14:58.241Z,99050
2017-12-12T11:17:28.242Z,99053
2017-12-12T11:19:58.174Z,99051
2017-12-12T11:22:28.178Z,99061
2017-12-12T11:24:58.079Z,99061
2017-12-12T11:27:27.969Z,99060
2017-12-12T11:29:57.873Z,99081
2017-12-12T11:32:27.757Z,99082
2017-12-12T11:34:57.709Z,99100
2017-12-12T11:37:37.507Z,99094
2017-12-12T11:40:07.428Z,99102
2017-12-12T11:42:37.322Z,99104
2017-12-12T11:45:07.210Z,99110
2017-12-12T11:47:37.110Z,99111
2017-12-12T11:50:07.003Z,99121
2017-12-12T11:52:36.903Z,99122
2017-12-12T11:55:06.781Z,99127
2017-12-12T11:57:36.813Z,98945
2017-12-12T12:00:06.688Z,99140
2017-12-12T12:02:36.603Z,99153
2017-12-12T12:05:06.568Z,99158
2017-12-12T12:07:36.512Z,99163
2017-12-12T12:10:06.423Z,99188
2017-12-12T12:12:36.293Z,99180
2017-12-12T12:15:06.171Z,99186
2017-12-12T12:17:36.063Z,99195
2017-12-12T12:20:05.941Z,99202
2017-12-12T12:22:35.839Z,99212
2017-12-12T12:25:05.720Z,99210
2017-12-12T12:27:35.616Z,99211
2017-12-12T12:30:05.547Z,99225
2017-12-12T12:32:35.445Z,99224
2017-12-12T12:35:05.435Z,99222
2017-12-12T12:37:35.413Z,99230
2017-12-12T12:40:05.305Z,99235
2017-12-12T12:42:35.191Z,99242
2017-12-12T12:45:05.103Z,99247
2017-12-12T12:47:35.886Z,99254
2017-12-12T12:50:05.822Z,99255
2017-12-12T12:52:35.685Z,99258
2017-12-12T12:55:05.589Z,99268
2017-12-12T12:57:35.498Z,99282
2017-12-12T13:00:05.452Z,99288
2017-12-12T13:02:35.364Z,99291
2017-12-12T13:05:05.395Z,99307
2017-12-12T13:07:35.713Z,99308
2017-12-12T13:10:05.638Z,99312
2017-12-12T13:12:35.524Z,99331
2017-12-12T13:15:05.442Z,99337
2017-12-12T13:17:35.353Z,99335
2017-12-12T13:20:06.493Z,99335
2017-12-12T13:22:36.364Z,99341
2017-12-12T13:25:06.288Z,99365
2017-12-12T13:27:36.175Z,99370
2017-12-12T13:30:06.083Z,99374
2017-12-12T13:32:35.978Z,99378
2017-12-12T13:35:06.641Z,99379
2017-12-12T13:37:36.530Z,99388
2017-12-12T13:40:06.398Z,99394
2017-12-12T13:42:36.342Z,99396
2017-12-12T13:45:06.266Z,99407
2017-12-12T13:47:36.161Z,99409
2017-12-12T13:50:06.075Z,99418
2017-12-12T13:52:35.968Z,99424
2017-12-12T13:55:06.040Z,99430
2017-12-12T13:57:36.009Z,99435
2017-12-12T14:00:06.046Z,99440
2017-12-12T14:02:36.018Z,99451
2017-12-12T14:05:05.934Z,99453
2017-12-12T14:07:35.925Z,99469
2017-12-12T14:10:05.906Z,99481
2017-12-12T14:12:36.046Z,99483
2017-12-12T14:15:05.945Z,99491
2017-12-12T14:17:36.726Z,99490
2017-12-12T14:20:06.651Z,99506
2017-12-12T14:22:36.564Z,99507
2017-12-12T14:25:06.449Z,99507
2017-12-12T14:27:36.368Z,99518
2017-12-12T14:30:06.289Z,99521
2017-12-12T14:32:36.180Z,99530
2017-12-12T14:35:06.081Z,99535
2017-12-12T14:37:36.003Z,99544
2017-12-12T14:40:05.923Z,99553
2017-12-12T14:42:43.625Z,99578
2017-12-12T14:45:13.525Z,99570
2017-12-12T14:47:43.462Z,99569
2017-12-12T14:50:13.384Z,99575
2017-12-12T14:52:43.298Z,99575
2017-12-12T14:55:13.235Z,99592
2017-12-12T14:57:43.243Z,99607
2017-12-12T15:00:13.186Z,99351
2017-12-12T15:02:43.192Z,99619
2017-12-12T15:05:13.094Z,99627
2017-12-12T15:07:42.973Z,99645
2017-12-12T15:10:12.881Z,99647
2017-12-12T15:12:42.835Z,99652
2017-12-12T15:15:12.747Z,99660
2017-12-12T15:17:42.714Z,99671
2017-12-12T15:20:12.585Z,99687
2017-12-12T15:22:42.596Z,99686
2017-12-12T15:25:12.465Z,99694
2017-12-12T15:27:42.478Z,99698
2017-12-12T15:30:12.354Z,99711
2017-12-12T15:32:42.420Z,99720
2017-12-12T15:35:12.286Z,99724
2017-12-12T15:37:42.212Z,99725
2017-12-12T15:40:12.095Z,99731
2017-12-12T15:42:42.231Z,99740
2017-12-12T15:45:12.108Z,99745
2017-12-12T15:47:42.996Z,99750
2017-12-12T15:50:12.910Z,99765
2017-12-12T15:52:42.860Z,99758
2017-12-12T15:55:12.881Z,99776
2017-12-12T15:57:43.027Z,99779
2017-12-12T16:00:12.976Z,99793
2017-12-12T16:02:42.969Z,99792
2017-12-12T16:05:13.112Z,99800
2017-12-12T16:07:44.014Z,99805
2017-12-12T16:10:14.386Z,99809
2017-12-12T16:12:44.401Z,99813
2017-12-12T16:15:14.363Z,99829
2017-12-12T16:17:45.087Z,99835
2017-12-12T16:20:15.877Z,99835
2017-12-12T16:22:45.838Z,99837
2017-12-12T16:25:15.770Z,99848
2017-12-12T16:27:45.780Z,99851
2017-12-12T16:30:15.737Z,99856
2017-12-12T16:32:45.696Z,99861
2017-12-12T16:35:15.614Z,99860
2017-12-12T16:37:45.716Z,99881
2017-12-12T16:53:11.478Z,99912
2017-12-12T16:55:41.374Z,99912
2017-12-12T16:58:11.304Z,99919
2017-12-12T17:00:41.889Z,99922
2017-12-12T17:03:12.004Z,99925
2017-12-12T17:05:41.914Z,99927
2017-12-12T17:08:11.861Z,99933
2017-12-12T17:10:41.762Z,99934
2017-12-12T17:13:11.680Z,99948
2017-12-12T17:15:41.704Z,99947
2017-12-12T17:18:11.674Z,99959
2017-12-12T17:20:41.687Z,99958
2017-12-12T17:23:11.634Z,99960
2017-12-12T17:25:41.554Z,99957
2017-12-12T17:28:12.191Z,99693
2017-12-12T17:30:42.126Z,99968
2017-12-12T17:33:12.045Z,99970
2017-12-12T17:35:41.994Z,99967
2017-12-12T17:38:11.861Z,99976
2017-12-12T17:40:41.746Z,99974
2017-12-12T17:43:11.665Z,99974
2017-12-12T17:45:41.615Z,99974
2017-12-12T17:48:11.540Z,99980
2017-12-12T17:50:41.479Z,99987
2017-12-12T17:53:11.419Z,99999
2017-12-12T17:55:41.318Z,99987
2017-12-12T17:58:11.445Z,99996
2017-12-12T18:00:41.416Z,100001
2017-12-12T18:03:11.362Z,100003
2017-12-12T18:05:41.262Z,100011
2017-12-12T18:08:11.218Z,100017
2017-12-12T18:10:41.119Z,100013
2017-12-12T18:13:11.540Z,100021
2017-12-12T18:15:41.397Z,100022
2017-12-12T18:18:12.090Z,100036
2017-12-12T18:20:42.008Z,100041
2017-12-12T18:23:11.958Z,100041
2017-12-12T18:25:41.852Z,100033
2017-12-12T18:28:11.854Z,100053
2017-12-12T18:30:41.753Z,100009
2017-12-12T18:33:11.662Z,100054
2017-12-12T18:35:41.705Z,100051
2017-12-12T18:38:12.450Z,100052
2017-12-12T18:40:42.462Z,100063
2017-12-12T18:43:13.354Z,100058
2017-12-12T18:45:43.312Z,100070
2017-12-12T18:48:13.494Z,100077
2017-12-12T18:50:43.557Z,100081
2017-12-12T18:53:14.317Z,100079
2017-12-12T18:55:44.330Z,100083
2017-12-12T18:58:14.283Z,100087
2017-12-12T19:00:44.314Z,100082
2017-12-12T19:03:15.168Z,100090
2017-12-12T19:05:45.321Z,100084
2017-12-12T19:08:15.219Z,100089
2017-12-12T19:10:45.280Z,100098
2017-12-12T19:13:16.493Z,100109
2017-12-12T19:15:47.550Z,100111
2017-12-12T19:18:17.491Z,100100
2017-12-12T19:20:47.445Z,100110
2017-12-12T19:23:17.384Z,100108
2017-12-12T19:25:47.799Z,100112
2017-12-12T19:28:17.827Z,100120
2017-12-12T19:30:47.765Z,100117
2017-12-12T19:33:17.771Z,100128
2017-12-12T19:35:47.758Z,100124
2017-12-12T19:38:17.669Z,100124
2017-12-12T19:40:47.615Z,100124
2017-12-12T19:43:17.659Z,100122
2017-12-12T19:45:47.792Z,100123
2017-12-12T19:48:17.735Z,100127
2017-12-12T19:50:47.667Z,100140
2017-12-12T19:53:17.649Z,100140
2017-12-12T19:55:47.747Z,100147
2017-12-12T19:58:17.714Z,100142
2017-12-12T20:00:47.704Z,100149
2017-12-12T20:03:18.832Z,100149
2017-12-12T20:05:48.859Z,100166
2017-12-12T20:08:18.801Z,100163
2017-12-12T20:10:48.740Z,100158
2017-12-12T20:13:18.657Z,100166
2017-12-12T20:15:48.627Z,100169
2017-12-12T20:18:18.553Z,100173
2017-12-12T20:20:48.649Z,100172
2017-12-12T20:23:18.602Z,100189
2017-12-12T20:25:48.677Z,100125
2017-12-12T20:28:18.631Z,100177
2017-12-12T20:30:48.609Z,100179
2017-12-12T20:33:18.578Z,100181
2017-12-12T20:35:48.999Z,100172
2017-12-12T20:38:18.965Z,100176
2017-12-12T20:40:48.923Z,100174
2017-12-12T20:43:18.794Z,100172
2017-12-12T20:45:48.814Z,100183
2017-12-12T20:48:18.815Z,100173
2017-12-12T20:50:48.799Z,100175
2017-12-12T20:53:18.747Z,100173
2017-12-12T20:55:48.817Z,100180
2017-12-12T20:58:18.839Z,100177
2017-12-12T21:00:48.878Z,100181
2017-12-12T21:03:18.869Z,100177
2017-12-12T21:05:48.931Z,100180
2017-12-12T21:08:18.852Z,100182
2017-12-12T21:10:48.824Z,100177
2017-12-12T21:13:18.779Z,100191
2017-12-12T21:15:48.774Z,100176
2017-12-12T21:20:55.039Z,100191
2017-12-12T21:23:25.045Z,100177
2017-12-12T21:25:55.015Z,100179
2017-12-12T21:28:24.954Z,100179
2017-12-12T21:30:54.916Z,100179
2017-12-12T21:33:24.841Z,100175
2017-12-12T21:35:54.830Z,100170
2017-12-12T21:38:24.752Z,100185
2017-12-12T21:40:54.645Z,100187
2017-12-12T21:43:25.214Z,100186
2017-12-12T21:45:55.134Z,100194
2017-12-12T21:48:25.053Z,100182
2017-12-12T21:50:55.115Z,100183
2017-12-12T21:53:25.026Z,100189
2017-12-12T21:55:54.932Z,100192
2017-12-12T21:58:24.909Z,100185
2017-12-12T22:00:54.830Z,100198
2017-12-12T22:03:24.710Z,100201
2017-12-12T22:05:54.607Z,100195
2017-12-12T22:08:24.541Z,100200
2017-12-12T22:10:54.486Z,100196
2017-12-12T22:13:24.376Z,100195
2017-12-12T22:15:54.315Z,100206
2017-12-12T22:18:24.249Z,100208
2017-12-12T22:20:54.273Z,100208
2017-12-12T22:23:24.177Z,100211
2017-12-12T22:25:54.107Z,100218
2017-12-12T22:28:24.023Z,100213
2017-12-12T22:30:54.049Z,100210
2017-12-12T22:33:23.985Z,100218
2017-12-12T22:35:53.903Z,100217
2017-12-12T22:38:23.891Z,100219
2017-12-12T22:40:53.968Z,100225
2017-12-12T22:43:23.848Z,100231
2017-12-12T22:45:53.740Z,100211
2017-12-12T22:48:23.832Z,100218
2017-12-12T22:50:53.773Z,100232
2017-12-12T22:53:24.070Z,100229
2017-12-12T22:55:54.086Z,100239
2017-12-12T22:58:24.023Z,100242
2017-12-12T23:00:58.871Z,100249
2017-12-12T23:03:29.619Z,100250
2017-12-12T23:05:59.505Z,100241
2017-12-12T23:08:29.687Z,100245
2017-12-12T23:10:59.573Z,100251
2017-12-12T23:13:29.511Z,100257
2017-12-12T23:15:59.466Z,100250
2017-12-12T23:18:29.469Z,100248
2017-12-12T23:20:59.387Z,100253
2017-12-12T23:23:29.294Z,100242
2017-12-12T23:25:59.207Z,100244
2017-12-12T23:28:29.811Z,100235
2017-12-12T23:30:59.795Z,100255
2017-12-12T23:33:30.084Z,100255
2017-12-12T23:36:00.109Z,100256
2017-12-12T23:38:30.043Z,100250
2017-12-12T23:40:59.994Z,100241
2017-12-12T23:43:29.995Z,100244
2017-12-12T23:45:59.900Z,100251
2017-12-12T23:48:29.831Z,100251
2017-12-12T23:50:59.790Z,100252
2017-12-12T23:53:29.707Z,100252
2017-12-12T23:55:59.777Z,100244
2017-12-12T23:58:29.799Z,100250
